Time;durP1;ratioP1;P1;durP2;ratioP2;P2;SDS_P1;SDS_P2;PMS_P1;PMS_P2;Temp;Humidity;BMP_temperature;BMP_pressure;BME280_temperature;BME280_humidity;BME280_pressure;Samples;Min_cycle;Max_cycle;Signal;HPM_P1;HPM_P2
2020/12/10 00:01:11;;;;;;;15.65;8.77;;;0.80;60.30;;;;;;5114006;28;20039;-81
2020/12/10 00:03:37;;;;;;;15.07;8.57;;;0.80;60.20;;;;;;5095886;28;20040;-80
2020/12/10 00:06:03;;;;;;;13.40;8.88;;;0.80;60.20;;;;;;5113577;28;20027;-81
2020/12/10 00:08:29;;;;;;;16.98;9.80;;;0.80;60.10;;;;;;5114073;28;20027;-82
2020/12/10 00:10:56;;;;;;;17.08;9.50;;;0.80;60.00;;;;;;5113645;28;20156;-82
2020/12/10 00:13:21;;;;;;;16.08;9.00;;;0.80;60.00;;;;;;5113570;28;20028;-82
2020/12/10 00:15:47;;;;;;;16.55;8.48;;;0.80;60.00;;;;;;5095722;28;20039;-81
2020/12/10 00:18:13;;;;;;;15.07;8.73;;;0.70;59.80;;;;;;5113629;28;20088;-82
2020/12/10 00:20:39;;;;;;;16.40;9.13;;;0.80;59.90;;;;;;5113870;28;20053;-83
2020/12/10 00:23:05;;;;;;;13.18;8.30;;;0.80;59.90;;;;;;5113721;28;20039;-82
2020/12/10 00:25:31;;;;;;;15.20;8.75;;;0.70;59.80;;;;;;5113456;28;20038;-82
2020/12/10 00:27:57;;;;;;;14.35;8.57;;;0.70;59.70;;;;;;5113549;28;20035;-83
2020/12/10 00:30:23;;;;;;;20.58;9.57;;;0.70;59.70;;;;;;5113681;28;20035;-82
2020/12/10 00:32:49;;;;;;;16.17;8.20;;;0.70;59.60;;;;;;5113556;28;20043;-81
2020/12/10 00:35:14;;;;;;;15.32;8.73;;;0.70;59.60;;;;;;5113579;28;20039;-82
2020/12/10 00:37:40;;;;;;;16.60;9.63;;;0.70;59.50;;;;;;5113307;28;20551;-81
2020/12/10 00:40:08;;;;;;;17.42;9.13;;;0.80;59.50;;;;;;5113290;28;20035;-81
2020/12/10 00:42:35;;;;;;;15.32;8.68;;;0.70;59.40;;;;;;5113318;28;20131;-82
2020/12/10 00:45:01;;;;;;;14.45;8.98;;;0.70;59.50;;;;;;5113461;28;20087;-81
2020/12/10 00:47:27;;;;;;;15.88;8.88;;;0.70;59.40;;;;;;5113389;28;20385;-82
2020/12/10 00:49:56;;;;;;;16.52;9.23;;;0.70;59.40;;;;;;5095110;28;20382;-83
2020/12/10 00:52:25;;;;;;;14.00;8.60;;;0.70;59.40;;;;;;5095388;28;20511;-83
2020/12/10 00:54:53;;;;;;;14.23;9.05;;;0.70;59.30;;;;;;5095167;28;20038;-85
2020/12/10 00:57:20;;;;;;;13.77;8.60;;;0.70;59.30;;;;;;5129084;28;20050;-82
2020/12/10 00:59:46;;;;;;;15.52;8.55;;;0.70;59.30;;;;;;5116164;28;20067;-83
2020/12/10 01:02:12;;;;;;;18.00;8.75;;;0.70;59.20;;;;;;5113876;28;20042;-83
2020/12/10 01:04:38;;;;;;;15.60;8.25;;;0.70;59.10;;;;;;5113002;28;20084;-83
2020/12/10 01:07:04;;;;;;;13.73;8.50;;;0.70;59.10;;;;;;5094984;28;20398;-83
2020/12/10 01:09:30;;;;;;;16.15;9.00;;;0.70;59.10;;;;;;5113027;28;20035;-85
2020/12/10 01:11:56;;;;;;;15.70;8.70;;;0.70;59.10;;;;;;5113661;28;20432;-84
2020/12/10 01:14:22;;;;;;;14.23;8.00;;;0.70;59.10;;;;;;5113071;28;20043;-82
2020/12/10 01:16:48;;;;;;;14.15;8.38;;;0.70;59.00;;;;;;5112940;28;20390;-85
2020/12/10 01:19:14;;;;;;;16.40;9.43;;;0.70;58.90;;;;;;5130821;27;20077;-84
2020/12/10 01:21:40;;;;;;;12.73;8.13;;;0.70;58.90;;;;;;5117565;28;20043;-85
2020/12/10 01:24:06;;;;;;;11.77;7.82;;;0.70;58.90;;;;;;5116812;28;20514;-82
2020/12/10 01:26:35;;;;;;;14.13;9.02;;;0.70;58.80;;;;;;5099028;28;20087;-84
2020/12/10 01:29:01;;;;;;;14.18;8.35;;;0.70;58.80;;;;;;5116864;28;20040;-84
2020/12/10 01:31:28;;;;;;;16.45;9.30;;;0.70;59.30;;;;;;5116927;28;20024;-83
2020/12/10 01:33:54;;;;;;;15.10;8.65;;;0.70;58.70;;;;;;5116983;28;20036;-83
2020/12/10 01:36:21;;;;;;;15.50;8.18;;;0.60;58.70;;;;;;5116922;28;20070;-83
2020/12/10 01:38:48;;;;;;;13.55;8.13;;;0.60;58.70;;;;;;5116683;28;20058;-83
2020/12/10 01:41:14;;;;;;;15.05;9.27;;;0.70;58.70;;;;;;5117369;28;20502;-84
2020/12/10 01:43:42;;;;;;;13.48;8.30;;;0.70;58.70;;;;;;5116887;28;20084;-88
2020/12/10 01:46:08;;;;;;;13.82;8.05;;;0.60;58.60;;;;;;5098949;28;20024;-84
2020/12/10 01:48:35;;;;;;;15.80;9.45;;;0.70;58.60;;;;;;5116556;28;20038;-86
2020/12/10 01:51:02;;;;;;;13.02;7.65;;;0.60;58.50;;;;;;5098272;28;20031;-86
2020/12/10 01:53:28;;;;;;;13.95;8.32;;;0.70;58.60;;;;;;5097945;28;20027;-81
2020/12/10 01:55:54;;;;;;;15.35;8.60;;;0.60;58.60;;;;;;5098269;28;20498;-81
2020/12/10 01:58:20;;;;;;;13.73;8.20;;;0.70;58.50;;;;;;5116705;28;20059;-82
2020/12/10 02:00:47;;;;;;;14.45;8.00;;;0.60;58.50;;;;;;5116157;28;20044;-83
2020/12/10 02:03:12;;;;;;;14.68;8.10;;;0.60;58.40;;;;;;5116296;28;20039;-81
2020/12/10 02:05:43;;;;;;;13.18;7.30;;;0.60;58.50;;;;;;5117417;28;20379;-88
2020/12/10 02:08:09;;;;;;;12.70;8.45;;;0.60;58.50;;;;;;5116728;28;20047;-86
2020/12/10 02:10:36;;;;;;;13.57;8.85;;;0.60;58.40;;;;;;5099140;28;20104;-86
2020/12/10 02:13:02;;;;;;;12.43;7.45;;;0.60;58.40;;;;;;5117897;28;20142;-84
2020/12/10 02:15:28;;;;;;;13.77;8.60;;;0.60;58.40;;;;;;5115664;28;20051;-83
2020/12/10 02:17:54;;;;;;;14.07;7.88;;;0.60;58.40;;;;;;5116017;28;20074;-84
2020/12/10 02:20:24;;;;;;;13.52;7.38;;;0.60;58.40;;;;;;5098076;28;20501;-83
2020/12/10 02:23:06;;;;;;;14.80;8.63;;;0.60;58.40;;;;;;5115869;28;20042;-83
2020/12/10 02:25:33;;;;;;;13.52;7.82;;;0.60;58.40;;;;;;5118274;28;20039;-93
2020/12/10 02:28:11;;;;;;;14.40;7.78;;;0.60;58.30;;;;;;5097501;28;20024;-91
2020/12/10 02:30:39;;;;;;;12.93;7.75;;;0.60;58.30;;;;;;5103840;28;20108;-85
2020/12/10 02:33:07;;;;;;;13.25;7.40;;;0.60;58.30;;;;;;5097379;28;20041;-81
2020/12/10 02:35:34;;;;;;;12.07;7.72;;;0.60;58.20;;;;;;5080594;28;20023;-81
2020/12/10 02:38:02;;;;;;;11.85;7.03;;;0.60;58.20;;;;;;5097123;28;20047;-81
2020/12/10 02:40:31;;;;;;;14.68;8.32;;;0.60;58.30;;;;;;5097240;28;20106;-81
2020/12/10 02:42:58;;;;;;;16.27;7.75;;;0.60;58.20;;;;;;5131443;27;20032;-81
2020/12/10 02:45:24;;;;;;;11.70;7.70;;;0.50;58.10;;;;;;5117958;28;20077;-81
2020/12/10 02:47:51;;;;;;;11.48;7.10;;;0.60;58.20;;;;;;5121373;28;20049;-80
2020/12/10 02:50:17;;;;;;;11.23;7.13;;;0.50;58.10;;;;;;5109005;28;20096;-80
2020/12/10 02:52:43;;;;;;;14.02;6.93;;;0.50;58.10;;;;;;5117592;28;20027;-81
2020/12/10 02:55:09;;;;;;;12.20;6.72;;;0.50;58.10;;;;;;5115441;28;20039;-83
2020/12/10 02:57:35;;;;;;;13.55;8.70;;;0.50;58.10;;;;;;5096732;28;20052;-82
2020/12/10 03:00:04;;;;;;;12.68;7.00;;;0.50;58.20;;;;;;5096870;28;20031;-81
2020/12/10 03:02:30;;;;;;;13.18;6.95;;;0.50;58.00;;;;;;5114969;28;20035;-81
2020/12/10 03:04:56;;;;;;;13.13;7.13;;;0.50;58.00;;;;;;5115373;28;20498;-91
2020/12/10 03:07:22;;;;;;;12.68;7.30;;;0.50;57.90;;;;;;5116888;28;20043;-90
2020/12/10 03:09:47;;;;;;;13.20;6.90;;;0.50;57.90;;;;;;5115353;28;20032;-82
2020/12/10 03:12:13;;;;;;;15.55;7.20;;;0.50;58.00;;;;;;5115125;28;20035;-82
2020/12/10 03:14:39;;;;;;;13.18;7.13;;;0.50;58.00;;;;;;5114903;28;20031;-83
2020/12/10 03:17:06;;;;;;;15.27;6.97;;;0.50;57.90;;;;;;5114862;28;20578;-84
2020/12/10 03:19:32;;;;;;;12.73;6.68;;;0.50;57.90;;;;;;5114852;28;20082;-85
2020/12/10 03:21:58;;;;;;;12.77;7.43;;;0.50;57.90;;;;;;5096868;28;20050;-85
2020/12/10 03:24:24;;;;;;;12.38;6.88;;;0.50;57.80;;;;;;5114838;28;20483;-86
2020/12/10 03:26:50;;;;;;;10.88;6.72;;;0.50;57.80;;;;;;5116724;28;20059;-78
2020/12/10 03:29:16;;;;;;;14.50;7.82;;;0.50;57.80;;;;;;5114710;28;20498;-79
2020/12/10 03:31:42;;;;;;;12.95;7.18;;;0.50;57.80;;;;;;5114381;28;20140;-79
2020/12/10 03:34:08;;;;;;;9.30;6.35;;;0.40;57.70;;;;;;5096223;28;20039;-80
2020/12/10 03:36:55;;;;;;;11.45;7.03;;;0.40;57.80;;;;;;5114418;28;20038;-79
2020/12/10 03:39:23;;;;;;;11.18;6.28;;;0.50;57.80;;;;;;5096594;28;20039;-80
2020/12/10 03:41:50;;;;;;;10.15;6.35;;;0.50;57.80;;;;;;5113595;28;20039;-80
2020/12/10 03:44:17;;;;;;;11.65;6.75;;;0.50;57.80;;;;;;5095882;28;20041;-80
2020/12/10 03:46:43;;;;;;;10.38;6.10;;;0.50;57.80;;;;;;5113255;28;20027;-80
2020/12/10 03:49:09;;;;;;;12.52;6.88;;;0.40;57.80;;;;;;5111168;28;20100;-82
2020/12/10 03:51:35;;;;;;;8.82;5.55;;;0.50;57.90;;;;;;5093200;28;20032;-84
2020/12/10 03:54:02;;;;;;;10.27;6.32;;;0.50;57.80;;;;;;5112686;28;20031;-78
2020/12/10 03:56:30;;;;;;;12.00;6.72;;;0.50;57.90;;;;;;5109637;28;20070;-80
2020/12/10 03:58:57;;;;;;;11.68;6.50;;;0.50;57.90;;;;;;5093677;28;20414;-79
2020/12/10 04:01:23;;;;;;;14.00;7.68;;;0.50;57.90;;;;;;5077536;28;20040;-78
2020/12/10 04:03:49;;;;;;;13.70;6.88;;;0.50;58.00;;;;;;5100947;28;20085;-78
2020/12/10 04:06:15;;;;;;;9.45;6.50;;;0.40;58.00;;;;;;5111760;28;20040;-78
2020/12/10 04:08:41;;;;;;;12.68;7.25;;;0.40;58.00;;;;;;5111821;28;20114;-80
2020/12/10 04:11:07;;;;;;;14.15;7.43;;;0.40;58.00;;;;;;5111873;28;20063;-79
2020/12/10 04:13:33;;;;;;;11.57;6.93;;;0.40;58.00;;;;;;5111443;28;20486;-80
2020/12/10 04:16:02;;;;;;;14.30;6.90;;;0.40;58.00;;;;;;5111979;28;20093;-79
2020/12/10 04:18:30;;;;;;;14.30;7.20;;;0.50;57.90;;;;;;5092206;28;20046;-80
2020/12/10 04:20:56;;;;;;;14.05;7.38;;;0.40;58.00;;;;;;5111950;28;20640;-80
2020/12/10 04:23:23;;;;;;;11.48;7.30;;;0.40;58.60;;;;;;5077050;28;20050;-80
2020/12/10 04:25:55;;;;;;;11.18;6.47;;;0.40;57.90;;;;;;5111450;28;20100;-79
2020/12/10 04:28:22;;;;;;;11.48;7.18;;;0.40;58.00;;;;;;5111007;28;20526;-80
2020/12/10 04:30:48;;;;;;;11.70;6.78;;;0.40;57.90;;;;;;5076136;28;20035;-80
2020/12/10 04:33:14;;;;;;;10.55;6.93;;;0.40;58.00;;;;;;5093217;28;20375;-78
2020/12/10 04:35:42;;;;;;;14.13;8.13;;;0.40;57.90;;;;;;5112631;28;20032;-77
2020/12/10 04:38:09;;;;;;;15.02;7.43;;;0.40;58.00;;;;;;5113246;28;20474;-76
2020/12/10 04:40:35;;;;;;;11.77;7.25;;;0.40;58.00;;;;;;5095866;28;20450;-78
2020/12/10 04:43:08;;;;;;;12.95;7.28;;;0.40;58.00;;;;;;5113507;28;20059;-75
2020/12/10 04:45:34;;;;;;;15.15;7.65;;;0.40;58.00;;;;;;5113161;28;20034;-77
2020/12/10 04:48:01;;;;;;;15.27;7.85;;;0.40;58.00;;;;;;5094666;28;20039;-77
2020/12/10 04:50:29;;;;;;;12.18;7.80;;;0.40;58.00;;;;;;5112538;28;20044;-78
2020/12/10 04:52:56;;;;;;;14.38;7.40;;;0.40;58.00;;;;;;5112911;28;20038;-78
2020/12/10 04:55:24;;;;;;;12.43;7.18;;;0.40;58.10;;;;;;5113009;28;20046;-78
2020/12/10 04:57:53;;;;;;;14.32;7.70;;;0.40;58.10;;;;;;5113234;28;20056;-78
2020/12/10 05:00:20;;;;;;;12.43;7.72;;;0.40;58.10;;;;;;5094744;28;20475;-78
2020/12/10 05:02:47;;;;;;;12.50;7.80;;;0.30;58.00;;;;;;5113094;28;20044;-77
2020/12/10 05:05:26;;;;;;;11.65;6.95;;;0.30;58.10;;;;;;5112776;28;20043;-77
2020/12/10 05:07:53;;;;;;;14.13;7.63;;;0.30;58.00;;;;;;5112768;28;20481;-76
2020/12/10 05:10:20;;;;;;;11.32;7.20;;;0.30;58.00;;;;;;5113060;28;20032;-76
2020/12/10 05:12:47;;;;;;;13.77;7.20;;;0.30;58.10;;;;;;5113343;28;20044;-76
2020/12/10 05:15:16;;;;;;;15.82;8.38;;;0.30;58.10;;;;;;5094754;28;20399;-77
2020/12/10 05:17:42;;;;;;;11.52;7.20;;;0.30;58.10;;;;;;5112578;28;20044;-76
2020/12/10 05:20:08;;;;;;;9.82;6.65;;;0.30;58.10;;;;;;5112864;28;20043;-76
2020/12/10 05:22:44;;;;;;;13.02;7.43;;;0.30;58.10;;;;;;5113348;28;20035;-76
2020/12/10 05:25:10;;;;;;;14.73;7.25;;;0.40;58.20;;;;;;5094995;28;20398;-76
2020/12/10 05:27:36;;;;;;;13.88;7.43;;;0.30;58.20;;;;;;5112689;28;20123;-76
2020/12/10 05:30:03;;;;;;;13.88;8.32;;;0.30;58.20;;;;;;5112828;28;20490;-77
2020/12/10 05:32:43;;;;;;;12.10;7.20;;;0.30;58.20;;;;;;5112689;28;20043;-77
2020/12/10 05:35:21;;;;;;;11.93;7.72;;;0.40;58.20;;;;;;5112695;28;20032;-77
2020/12/10 05:37:48;;;;;;;12.95;7.95;;;0.30;58.20;;;;;;5112522;28;20506;-77
2020/12/10 05:40:14;;;;;;;13.15;7.40;;;0.30;58.30;;;;;;5094221;28;20028;-77
2020/12/10 05:42:46;;;;;;;13.50;7.75;;;0.30;58.30;;;;;;5112465;28;20055;-78
2020/12/10 05:45:14;;;;;;;13.35;7.20;;;0.30;58.30;;;;;;5112532;28;20023;-78
2020/12/10 05:47:54;;;;;;;13.18;7.90;;;0.30;58.30;;;;;;5112845;28;20044;-77
2020/12/10 05:50:25;;;;;;;13.55;6.47;;;0.30;58.30;;;;;;5112789;28;20042;-76
2020/12/10 05:53:11;;;;;;;11.43;7.72;;;0.30;58.30;;;;;;5094415;28;20039;-78
2020/12/10 05:55:44;;;;;;;13.27;7.70;;;0.30;58.20;;;;;;5113163;28;20105;-78
2020/12/10 05:58:10;;;;;;;13.23;7.68;;;0.40;58.20;;;;;;5093970;28;20067;-78
2020/12/10 06:00:38;;;;;;;13.38;7.75;;;0.30;58.10;;;;;;5094132;28;20063;-78
2020/12/10 06:03:04;;;;;;;14.02;7.75;;;0.40;58.20;;;;;;5112675;28;20104;-77
2020/12/10 06:05:31;;;;;;;14.20;8.30;;;0.40;58.10;;;;;;5096392;28;20032;-76
2020/12/10 06:08:05;;;;;;;13.02;7.40;;;0.40;58.10;;;;;;5116470;28;20093;-77
2020/12/10 06:10:42;;;;;;;13.45;7.05;;;0.40;58.10;;;;;;5116055;28;20035;-77
2020/12/10 06:13:11;;;;;;;13.45;7.93;;;0.40;58.00;;;;;;5115913;28;20044;-77
2020/12/10 06:15:37;;;;;;;11.00;6.75;;;0.40;58.00;;;;;;5115817;28;20050;-77
2020/12/10 06:18:11;;;;;;;15.15;7.78;;;0.40;58.00;;;;;;5115881;28;20521;-79
2020/12/10 06:20:38;;;;;;;13.95;8.20;;;0.40;58.00;;;;;;5115977;28;20559;-78
2020/12/10 06:23:23;;;;;;;11.10;7.45;;;0.40;57.90;;;;;;5097572;28;20043;-78
2020/12/10 06:25:50;;;;;;;12.27;7.78;;;0.40;57.90;;;;;;5115946;28;20039;-78
2020/12/10 06:28:21;;;;;;;12.38;7.85;;;0.50;57.90;;;;;;5115795;28;20040;-78
2020/12/10 06:31:08;;;;;;;13.55;7.80;;;0.40;57.80;;;;;;5115523;28;20486;-77
2020/12/10 06:33:41;;;;;;;13.40;8.02;;;0.40;57.70;;;;;;5080764;28;20122;-78
2020/12/10 06:36:24;;;;;;;17.20;8.18;;;0.50;57.80;;;;;;5115569;28;20023;-78
2020/12/10 06:38:52;;;;;;;13.65;7.70;;;0.50;57.80;;;;;;5097044;28;20035;-79
2020/12/10 06:41:18;;;;;;;18.20;10.20;;;0.50;57.80;;;;;;5097243;28;20027;-77
2020/12/10 06:43:44;;;;;;;13.25;8.32;;;0.50;57.70;;;;;;5115226;28;20031;-78
2020/12/10 06:46:10;;;;;;;15.30;9.05;;;0.50;57.70;;;;;;5115108;28;20063;-78
2020/12/10 06:48:47;;;;;;;14.55;8.82;;;0.50;57.70;;;;;;5097092;28;20039;-78
2020/12/10 06:51:20;;;;;;;13.50;8.35;;;0.50;57.60;;;;;;5115533;28;20070;-75
2020/12/10 06:54:01;;;;;;;13.48;7.80;;;0.50;57.60;;;;;;5115728;28;20391;-77
2020/12/10 06:56:31;;;;;;;14.05;8.02;;;0.50;57.40;;;;;;5096730;28;20059;-77
2020/12/10 06:59:00;;;;;;;13.55;7.90;;;0.50;58.00;;;;;;5114914;28;20132;-77
2020/12/10 07:01:38;;;;;;;14.75;8.05;;;0.50;57.40;;;;;;5114893;28;20043;-76
2020/12/10 07:04:37;;;;;;;13.88;7.63;;;0.50;57.30;;;;;;5096804;28;20407;-80
2020/12/10 07:07:20;;;;;;;12.73;7.53;;;0.60;57.30;;;;;;5117005;28;20063;-80
2020/12/10 07:09:47;;;;;;;13.10;8.00;;;0.50;57.10;;;;;;5117329;28;20076;-87
2020/12/10 07:12:20;;;;;;;15.60;7.95;;;0.50;57.20;;;;;;5117498;28;20055;-93
2020/12/10 07:14:46;;;;;;;12.07;7.88;;;0.50;57.10;;;;;;5119758;28;20027;-88
2020/12/10 07:17:12;;;;;;;15.57;8.25;;;0.50;57.00;;;;;;5116599;28;20054;-85
2020/12/10 07:19:38;;;;;;;14.57;7.97;;;0.60;57.00;;;;;;5117901;28;20169;-85
2020/12/10 07:22:04;;;;;;;14.43;8.10;;;0.60;57.00;;;;;;5099470;28;20065;-86
2020/12/10 07:24:29;;;;;;;12.27;7.38;;;0.60;57.00;;;;;;5115089;28;20100;-87
2020/12/10 07:26:55;;;;;;;12.93;8.18;;;0.60;57.00;;;;;;5114711;28;20038;-87
2020/12/10 07:29:21;;;;;;;13.00;7.80;;;0.60;56.90;;;;;;5115200;28;20027;-87
2020/12/10 07:31:47;;;;;;;14.43;8.52;;;0.60;56.80;;;;;;5115773;28;20505;-85
2020/12/10 07:34:13;;;;;;;13.82;8.30;;;0.60;56.80;;;;;;5116909;27;20525;-88
2020/12/10 07:36:47;;;;;;;16.27;8.23;;;0.60;56.70;;;;;;5116224;28;20027;-91
2020/12/10 07:39:13;;;;;;;12.98;8.05;;;0.70;56.80;;;;;;5118970;28;20126;-90
2020/12/10 07:41:39;;;;;;;16.38;8.30;;;0.60;56.70;;;;;;5116314;28;20035;-90
2020/12/10 07:44:05;;;;;;;14.25;8.50;;;0.60;56.70;;;;;;5096468;28;20103;-84
2020/12/10 07:46:35;;;;;;;13.00;7.75;;;0.70;56.70;;;;;;5116238;28;20031;-82
2020/12/10 07:49:01;;;;;;;19.20;8.90;;;0.70;56.60;;;;;;5113240;28;20043;-78
2020/12/10 07:51:27;;;;;;;14.82;8.02;;;0.60;59.20;;;;;;5129500;28;20035;-89
2020/12/10 07:54:02;;;;;;;17.48;9.23;;;0.60;65.30;;;;;;5124145;28;20023;-91
2020/12/10 07:56:31;;;;;;;14.20;8.80;;;0.60;69.50;;;;;;5118605;28;20031;-83
2020/12/10 07:59:14;;;;;;;16.15;8.60;;;0.60;72.40;;;;;;5114239;28;20039;-87
2020/12/10 08:01:49;;;;;;;18.50;8.98;;;0.60;73.30;;;;;;5115125;28;20035;-87
2020/12/10 08:04:20;;;;;;;15.32;9.23;;;0.70;74.70;;;;;;5096978;28;20034;-81
2020/12/10 08:07:01;;;;;;;18.35;9.05;;;0.80;75.90;;;;;;5114038;28;20074;-84
2020/12/10 08:09:27;;;;;;;21.42;8.80;;;0.80;77.20;;;;;;5113715;28;20035;-84
2020/12/10 08:11:58;;;;;;;20.02;10.27;;;0.90;77.20;;;;;;5095639;28;20035;-89
2020/12/10 08:14:31;;;;;;;17.75;9.20;;;1.00;77.30;;;;;;5096779;28;20208;-82
2020/12/10 08:16:59;;;;;;;19.60;9.73;;;1.10;78.00;;;;;;5113972;28;20027;-80
2020/12/10 08:19:27;;;;;;;18.58;9.80;;;1.10;78.30;;;;;;5114389;28;20078;-87
2020/12/10 08:21:54;;;;;;;21.35;9.48;;;1.20;78.30;;;;;;5123528;28;20042;-82
2020/12/10 08:24:49;;;;;;;17.50;9.40;;;1.20;79.20;;;;;;5114977;28;20352;-80
2020/12/10 08:27:18;;;;;;;17.98;10.98;;;1.20;79.40;;;;;;5086704;28;20490;-83
2020/12/10 08:30:10;;;;;;;21.27;10.98;;;1.20;79.00;;;;;;5114135;28;20027;-81
2020/12/10 08:32:49;;;;;;;25.17;10.80;;;1.20;78.90;;;;;;5113614;28;20054;-80
2020/12/10 08:35:15;;;;;;;18.95;10.18;;;1.30;78.20;;;;;;5113239;28;20477;-77
2020/12/10 08:37:41;;;;;;;23.15;11.07;;;1.30;78.40;;;;;;5113172;28;20043;-80
2020/12/10 08:40:09;;;;;;;22.33;11.32;;;1.40;77.50;;;;;;5113532;28;20069;-79
2020/12/10 08:42:35;;;;;;;22.65;10.63;;;1.40;76.30;;;;;;5113300;28;20036;-82
2020/12/10 08:45:01;;;;;;;21.42;11.55;;;1.40;75.80;;;;;;5113253;28;20486;-79
2020/12/10 08:47:32;;;;;;;21.00;11.52;;;1.40;75.00;;;;;;5113066;28;20116;-78
2020/12/10 08:50:29;;;;;;;20.02;11.13;;;1.30;75.00;;;;;;5094684;28;20035;-80
2020/12/10 08:53:01;;;;;;;20.65;11.63;;;1.30;76.20;;;;;;5082163;28;20035;-85
2020/12/10 08:55:41;;;;;;;26.77;11.05;;;1.60;90.50;;;;;;5078723;28;20446;-84
2020/12/10 08:58:07;;;;;;;22.63;12.23;;;1.70;81.80;;;;;;5112969;28;20463;-82
2020/12/10 09:00:36;;;;;;;21.00;11.98;;;1.70;75.60;;;;;;5112899;28;20092;-82
2020/12/10 09:03:02;;;;;;;26.40;11.55;;;1.50;71.50;;;;;;5094936;28;20144;-91
2020/12/10 09:05:28;;;;;;;25.60;12.55;;;1.30;69.20;;;;;;5097672;28;20130;-92
2020/12/10 09:07:54;;;;;;;24.05;12.88;;;1.20;67.50;;;;;;5116597;28;20088;-88
2020/12/10 09:10:20;;;;;;;26.83;13.02;;;1.20;65.60;;;;;;5113633;28;20115;-90
2020/12/10 09:12:47;;;;;;;24.48;12.73;;;1.10;62.80;;;;;;5113062;28;20051;-85
2020/12/10 09:15:13;;;;;;;25.05;13.00;;;0.90;62.50;;;;;;5094610;28;20169;-83
2020/12/10 09:17:39;;;;;;;24.85;13.02;;;0.80;63.30;;;;;;5094480;28;20039;-84
2020/12/10 09:20:05;;;;;;;24.08;12.13;;;0.80;62.80;;;;;;5112558;28;20044;-78
2020/12/10 09:22:32;;;;;;;24.30;12.30;;;0.70;62.40;;;;;;5112794;28;20372;-81
2020/12/10 09:24:58;;;;;;;21.55;11.63;;;0.70;62.40;;;;;;5112252;28;20027;-80
2020/12/10 09:27:24;;;;;;;26.00;12.68;;;0.70;62.20;;;;;;5112776;28;20042;-79
2020/12/10 09:29:50;;;;;;;25.42;13.27;;;0.70;61.90;;;;;;5112703;28;20067;-79
2020/12/10 09:32:17;;;;;;;26.60;13.77;;;0.70;62.00;;;;;;5113697;28;20085;-80
2020/12/10 09:34:43;;;;;;;24.55;13.48;;;0.70;62.10;;;;;;5121023;28;20063;-79
2020/12/10 09:37:09;;;;;;;25.33;13.95;;;0.70;62.50;;;;;;5112503;28;20148;-78
2020/12/10 09:39:35;;;;;;;26.35;14.18;;;0.60;61.70;;;;;;5113516;28;20110;-81
2020/12/10 09:42:03;;;;;;;22.90;13.02;;;0.60;61.60;;;;;;5097848;28;20040;-80
2020/12/10 09:44:30;;;;;;;26.48;12.38;;;0.60;60.90;;;;;;5097805;28;20501;-79
2020/12/10 09:46:56;;;;;;;25.27;12.70;;;0.60;60.80;;;;;;5097952;28;20073;-79
2020/12/10 09:49:22;;;;;;;25.20;13.38;;;0.60;60.40;;;;;;5116023;28;20039;-81
2020/12/10 09:51:51;;;;;;;29.17;13.68;;;0.60;60.30;;;;;;5116605;28;20040;-83
2020/12/10 09:54:35;;;;;;;24.67;13.38;;;0.60;59.80;;;;;;5116128;28;20076;-81
2020/12/10 09:57:35;;;;;;;26.00;12.10;;;0.60;59.60;;;;;;5116572;28;20090;-80
2020/12/10 09:59:58;;;;;;;23.70;12.82;;;0.60;59.60;;;;;;5112964;28;20050;-81
2020/12/10 10:02:24;;;;;;;28.52;14.30;;;0.50;59.50;;;;;;5115960;28;20047;-80
2020/12/10 10:04:50;;;;;;;22.98;13.18;;;0.50;59.70;;;;;;5115835;28;20434;-80
2020/12/10 10:07:17;;;;;;;26.20;14.57;;;0.50;59.20;;;;;;5115863;28;20047;-81
2020/12/10 10:09:44;;;;;;;27.90;14.93;;;0.50;59.40;;;;;;5115946;28;20157;-81
2020/12/10 10:12:10;;;;;;;29.30;14.27;;;0.50;59.20;;;;;;5115864;28;20042;-81
2020/12/10 10:14:37;;;;;;;29.15;15.00;;;0.50;59.00;;;;;;5115697;28;20502;-79
2020/12/10 10:17:07;;;;;;;30.85;14.65;;;0.50;59.00;;;;;;5115537;28;20034;-79
2020/12/10 10:19:33;;;;;;;26.17;13.80;;;0.50;59.10;;;;;;5080730;28;20040;-80
2020/12/10 10:22:00;;;;;;;33.42;15.02;;;0.50;59.20;;;;;;5097263;28;20498;-79
2020/12/10 10:24:26;;;;;;;26.27;14.27;;;0.50;59.20;;;;;;5115653;28;20055;-79
2020/12/10 10:26:52;;;;;;;28.25;14.82;;;0.50;59.10;;;;;;5096970;28;20024;-80
2020/12/10 10:29:21;;;;;;;33.45;14.40;;;0.50;59.00;;;;;;5115400;28;20119;-82
2020/12/10 10:31:52;;;;;;;24.17;13.00;;;0.50;58.60;;;;;;5115507;28;20088;-81
2020/12/10 10:34:19;;;;;;;24.52;14.00;;;0.50;58.90;;;;;;5115498;28;20491;-80
2020/12/10 10:36:45;;;;;;;30.45;15.52;;;0.50;58.30;;;;;;5097561;28;20403;-82
2020/12/10 10:39:11;;;;;;;27.90;13.57;;;0.50;58.00;;;;;;5097098;28;20071;-80
2020/12/10 10:41:46;;;;;;;28.75;15.77;;;0.50;58.10;;;;;;5115124;28;20506;-82
2020/12/10 10:44:13;;;;;;;31.50;14.30;;;0.50;58.30;;;;;;5115395;28;20407;-81
2020/12/10 10:46:39;;;;;;;27.65;14.52;;;0.50;58.10;;;;;;5120963;28;20064;-81
2020/12/10 10:49:05;;;;;;;23.30;12.63;;;0.50;58.00;;;;;;5115675;28;20031;-83
2020/12/10 10:51:31;;;;;;;25.48;12.20;;;0.50;58.10;;;;;;5115184;28;20046;-83
2020/12/10 10:53:57;;;;;;;26.67;12.10;;;0.60;63.60;;;;;;5114490;28;20173;-82
2020/12/10 10:56:24;;;;;;;24.08;12.77;;;0.60;64.80;;;;;;5114153;28;20043;-82
2020/12/10 10:58:51;;;;;;;24.30;12.85;;;0.60;63.60;;;;;;5122923;28;20517;-84
2020/12/10 11:01:24;;;;;;;21.58;12.73;;;0.60;62.00;;;;;;5114172;28;20036;-86
2020/12/10 11:03:51;;;;;;;26.48;13.05;;;0.50;61.20;;;;;;5115342;28;20031;-82
2020/12/10 11:06:17;;;;;;;22.55;11.65;;;0.50;60.10;;;;;;5114861;28;20043;-81
2020/12/10 11:08:43;;;;;;;25.90;12.35;;;0.50;59.60;;;;;;5115174;28;20493;-81
2020/12/10 11:11:09;;;;;;;25.67;12.02;;;0.50;59.50;;;;;;5114265;28;20055;-80
2020/12/10 11:13:35;;;;;;;27.85;13.10;;;0.50;59.00;;;;;;5079250;28;20036;-81
2020/12/10 11:16:01;;;;;;;22.00;12.88;;;0.40;58.80;;;;;;5114114;28;20508;-81
2020/12/10 11:18:27;;;;;;;27.42;12.63;;;0.40;58.40;;;;;;5114202;28;20035;-80
2020/12/10 11:20:53;;;;;;;23.58;11.35;;;0.50;58.10;;;;;;5114464;28;20395;-83
2020/12/10 11:23:20;;;;;;;21.55;11.98;;;0.40;57.80;;;;;;5114177;28;20040;-82
2020/12/10 11:25:46;;;;;;;23.55;12.10;;;0.50;58.00;;;;;;5114300;28;20046;-82
2020/12/10 11:28:12;;;;;;;24.13;12.40;;;0.40;58.10;;;;;;5114226;28;20107;-82
2020/12/10 11:30:38;;;;;;;24.08;11.68;;;0.50;58.10;;;;;;5113813;28;20031;-83
2020/12/10 11:33:03;;;;;;;23.23;11.60;;;0.50;57.90;;;;;;5114181;28;20035;-84
2020/12/10 11:35:29;;;;;;;19.60;11.32;;;0.50;57.70;;;;;;5114428;28;20440;-78
2020/12/10 11:37:55;;;;;;;23.48;11.55;;;0.50;57.60;;;;;;5115007;28;20071;-81
2020/12/10 11:40:23;;;;;;;22.33;11.85;;;0.50;57.60;;;;;;5114101;28;20272;-80
2020/12/10 11:42:50;;;;;;;19.98;11.15;;;0.50;57.60;;;;;;5114184;28;20106;-80
2020/12/10 11:45:17;;;;;;;18.38;11.60;;;0.60;57.70;;;;;;5113772;28;20272;-82
2020/12/10 11:47:46;;;;;;;21.88;11.13;;;0.50;57.50;;;;;;5095597;28;20077;-83
2020/12/10 11:50:18;;;;;;;22.17;11.18;;;0.60;57.30;;;;;;5095980;28;20535;-81
2020/12/10 11:52:46;;;;;;;21.45;11.38;;;0.50;57.40;;;;;;5113963;28;20051;-80
2020/12/10 11:55:12;;;;;;;21.13;11.25;;;0.60;57.40;;;;;;5113903;28;20127;-83
2020/12/10 11:57:38;;;;;;;22.52;11.07;;;0.50;57.30;;;;;;5114237;28;20089;-81
2020/12/10 12:00:06;;;;;;;17.20;9.65;;;0.60;58.30;;;;;;5116464;28;20103;-79
2020/12/10 12:02:39;;;;;;;22.02;10.25;;;0.60;58.60;;;;;;5112976;28;20448;-79
2020/12/10 12:05:07;;;;;;;19.75;9.93;;;0.60;58.50;;;;;;5113625;28;20035;-81
2020/12/10 12:07:33;;;;;;;21.10;10.95;;;0.60;58.10;;;;;;5113796;28;20073;-80
2020/12/10 12:09:59;;;;;;;18.52;10.25;;;0.60;57.80;;;;;;5113573;28;20051;-80
2020/12/10 12:12:25;;;;;;;19.52;10.23;;;0.60;57.60;;;;;;5095315;28;20051;-77
2020/12/10 12:14:51;;;;;;;18.67;9.80;;;0.70;57.60;;;;;;5113422;28;20036;-78
2020/12/10 12:17:17;;;;;;;23.85;10.40;;;0.60;57.40;;;;;;5113529;28;20054;-78
2020/12/10 12:19:42;;;;;;;17.80;9.77;;;0.60;57.40;;;;;;5113317;28;20040;-77
2020/12/10 12:22:08;;;;;;;20.08;10.05;;;0.70;57.00;;;;;;5113267;28;20385;-80
2020/12/10 12:24:34;;;;;;;21.50;10.73;;;0.70;57.10;;;;;;5095566;28;20103;-76
2020/12/10 12:27:05;;;;;;;21.15;9.93;;;0.70;57.00;;;;;;5113002;28;20043;-76
2020/12/10 12:29:31;;;;;;;19.13;9.52;;;0.70;57.10;;;;;;5113385;28;20074;-77
2020/12/10 12:31:57;;;;;;;17.75;9.70;;;0.60;56.70;;;;;;5113727;28;20031;-78
2020/12/10 12:34:23;;;;;;;18.48;10.10;;;0.60;56.80;;;;;;5095068;28;20521;-78
2020/12/10 12:36:49;;;;;;;17.13;10.02;;;0.60;57.00;;;;;;5113465;28;20047;-79
2020/12/10 12:39:15;;;;;;;19.38;8.43;;;0.60;56.40;;;;;;5113749;28;20055;-76
2020/12/10 12:41:41;;;;;;;19.52;9.52;;;0.70;56.50;;;;;;5112788;28;20076;-77
2020/12/10 12:44:07;;;;;;;20.13;10.63;;;0.60;56.50;;;;;;5112795;28;20035;-75
2020/12/10 12:46:34;;;;;;;20.15;10.40;;;0.60;56.30;;;;;;5113002;28;20034;-75
2020/12/10 12:49:00;;;;;;;18.73;9.55;;;0.60;56.40;;;;;;5113074;28;20035;-77